createdAt,value
2023-01-27T00:05:37.041Z,99784.66
2023-01-27T00:11:57.683Z,99779.31
2023-01-27T00:17:59.954Z,99776.56
2023-01-27T00:24:20.209Z,99765.34
2023-01-27T00:30:22.097Z,99772.50
2023-01-27T00:36:23.998Z,99773.31
2023-01-27T00:42:25.986Z,99772.09
2023-01-27T00:48:28.154Z,99768.22
2023-01-27T00:54:30.045Z,99764.16
2023-01-27T01:00:31.946Z,99763.75
2023-01-27T01:06:33.884Z,99764.44
2023-01-27T01:12:35.780Z,99765.97
2023-01-27T01:18:39.039Z,99763.91
2023-01-27T01:24:40.935Z,99771.69
2023-01-27T01:30:42.920Z,99779.41
2023-01-27T01:36:44.829Z,99775.16
2023-01-27T01:43:15.136Z,99780.59
2023-01-27T01:49:21.054Z,99785.94
2023-01-27T01:55:23.985Z,99797.09
2023-01-27T02:01:25.902Z,99791.03
2023-01-27T02:07:51.384Z,99788.41
2023-01-27T02:13:53.367Z,99787.69
2023-01-27T02:20:47.096Z,99792.88
2023-01-27T02:26:49.455Z,99795.38
2023-01-27T02:32:51.444Z,99776.34
2023-01-27T02:38:56.721Z,99784.44
2023-01-27T02:44:58.594Z,99792.19
2023-01-27T02:51:00.629Z,99793.03
2023-01-27T02:57:02.569Z,99792.56
2023-01-27T03:03:04.520Z,99808.94
2023-01-27T03:09:06.543Z,99805.13
2023-01-27T03:15:28.318Z,99808.09
2023-01-27T03:21:30.240Z,99820.47
2023-01-27T03:27:32.386Z,99828.34
2023-01-27T03:33:35.595Z,99822.72
2023-01-27T03:39:56.265Z,99834.88
2023-01-27T03:46:17.135Z,99838.59
2023-01-27T03:52:19.071Z,99836.00
2023-01-27T03:58:31.967Z,99822.28
2023-01-27T04:04:52.228Z,99831.19
2023-01-27T04:11:12.395Z,99831.34
2023-01-27T04:17:17.743Z,99832.16
2023-01-27T04:23:19.639Z,99837.84
2023-01-27T04:29:24.781Z,99832.75
2023-01-27T04:35:37.455Z,99837.19
2023-01-27T04:41:40.376Z,99831.34
2023-01-27T04:47:42.259Z,99838.91
2023-01-27T04:53:44.210Z,99838.00
2023-01-27T04:59:46.095Z,99841.22
2023-01-27T05:05:48.088Z,99846.25
2023-01-27T05:11:49.989Z,99852.94
2023-01-27T05:17:52.197Z,99865.44
2023-01-27T05:23:54.222Z,99868.94
2023-01-27T05:29:57.098Z,99869.09
2023-01-27T05:36:01.387Z,99885.59
2023-01-27T05:42:03.374Z,99880.50
2023-01-27T05:48:05.586Z,99887.28
2023-01-27T05:54:08.931Z,99886.59
2023-01-27T06:00:11.632Z,99897.16
2023-01-27T06:06:16.774Z,99900.69
2023-01-27T06:12:18.656Z,99901.47
2023-01-27T06:18:20.576Z,99912.13
2023-01-27T06:24:24.054Z,99901.28
2023-01-27T06:30:25.979Z,99909.88
2023-01-27T06:36:27.843Z,99914.59
2023-01-27T06:42:29.743Z,99921.69
2023-01-27T06:48:31.904Z,99930.88
2023-01-27T06:54:33.917Z,99939.53
2023-01-27T07:00:36.923Z,99937.97
2023-01-27T07:06:38.804Z,99950.38
2023-01-27T07:12:40.746Z,99958.31
2023-01-27T07:18:42.650Z,99954.88
2023-01-27T07:24:44.546Z,99973.94
2023-01-27T07:30:46.982Z,99967.09
2023-01-27T07:36:48.896Z,99970.63
2023-01-27T07:42:50.812Z,99977.72
2023-01-27T07:48:52.847Z,99979.09
2023-01-27T07:54:54.724Z,99995.34
2023-01-27T08:00:56.661Z,99989.47
2023-01-27T08:06:58.624Z,99990.94
2023-01-27T08:13:00.551Z,99981.72
2023-01-27T08:19:02.480Z,99986.25
2023-01-27T08:25:04.747Z,99986.56
2023-01-27T08:31:14.831Z,99983.88
2023-01-27T08:37:16.807Z,99991.88
2023-01-27T08:43:20.654Z,100005.47
2023-01-27T08:49:22.570Z,100012.38
2023-01-27T08:55:29.541Z,100017.25
2023-01-27T09:01:31.511Z,100032.06
2023-01-27T09:07:34.294Z,100030.38
2023-01-27T09:13:36.185Z,100033.59
2023-01-27T09:19:38.184Z,100038.78
2023-01-27T09:25:40.215Z,100035.19
2023-01-27T09:31:42.574Z,100042.31
2023-01-27T09:37:54.092Z,100040.91
2023-01-27T09:44:48.837Z,100054.75
2023-01-27T09:51:06.307Z,100048.34
2023-01-27T09:57:53.966Z,100048.59
2023-01-27T10:04:23.387Z,100060.88
2023-01-27T10:11:10.328Z,100046.09
2023-01-27T10:17:20.929Z,100052.38
2023-01-27T10:23:41.126Z,100046.75
2023-01-27T10:29:56.631Z,100050.06
2023-01-27T10:36:31.153Z,100064.78
2023-01-27T10:42:47.445Z,100063.03
2023-01-27T10:49:06.255Z,100064.16
2023-01-27T10:55:25.610Z,100056.69
2023-01-27T11:01:41.480Z,100046.69
2023-01-27T11:07:52.593Z,100045.56
2023-01-27T11:14:15.735Z,100027.91
2023-01-27T11:20:54.556Z,100031.38
2023-01-27T11:27:13.900Z,100041.03
2023-01-27T11:33:34.805Z,100036.38
2023-01-27T11:39:36.986Z,100043.38
2023-01-27T11:45:39.122Z,100042.56
2023-01-27T11:51:41.094Z,100039.00
2023-01-27T11:58:18.894Z,100037.25
2023-01-27T12:04:49.136Z,100044.41
2023-01-27T12:10:52.257Z,100046.31
2023-01-27T12:16:54.442Z,100059.47
2023-01-27T12:23:19.937Z,100049.59
2023-01-27T12:29:31.516Z,100054.84
2023-01-27T12:35:36.415Z,100047.88
2023-01-27T12:41:38.738Z,100042.84
2023-01-27T12:47:40.657Z,100044.09
2023-01-27T12:53:45.772Z,100047.19
2023-01-27T12:59:52.775Z,100043.69
2023-01-27T13:05:58.101Z,100041.47
2023-01-27T13:12:21.822Z,100041.91
2023-01-27T13:18:24.297Z,100047.22
2023-01-27T13:24:41.958Z,100047.22
2023-01-27T13:30:52.506Z,100040.09
2023-01-27T13:37:24.322Z,100051.28
2023-01-27T13:43:40.426Z,100055.03
2023-01-27T13:49:48.127Z,100056.31
2023-01-27T13:56:20.659Z,100064.38
2023-01-27T14:02:28.329Z,100060.34
2023-01-27T14:08:55.022Z,100062.72
2023-01-27T14:15:26.441Z,100071.50
2023-01-27T14:21:48.101Z,100080.19
2023-01-27T14:28:21.524Z,100075.97
2023-01-27T14:35:07.702Z,100074.97
2023-01-27T14:41:44.247Z,100079.69
2023-01-27T14:48:09.569Z,100088.91
2023-01-27T14:54:45.035Z,100092.50
2023-01-27T15:01:29.499Z,100100.50
2023-01-27T15:08:02.211Z,100110.09
2023-01-27T15:14:21.909Z,100122.47
2023-01-27T15:20:51.290Z,100130.00
2023-01-27T15:26:54.324Z,100132.38
2023-01-27T15:32:56.729Z,100148.13
2023-01-27T15:39:10.734Z,100143.78
2023-01-27T15:45:39.292Z,100145.03
2023-01-27T15:51:41.364Z,100160.88
2023-01-27T15:57:43.692Z,100170.00
2023-01-27T16:03:48.847Z,100171.81
2023-01-27T16:09:52.539Z,100169.34
2023-01-27T16:16:18.989Z,100170.91
2023-01-27T16:22:23.522Z,100176.16
2023-01-27T16:28:29.373Z,100171.94
2023-01-27T16:34:41.430Z,100176.81
2023-01-27T16:41:23.939Z,100174.84
2023-01-27T16:47:39.727Z,100188.31
2023-01-27T16:53:51.310Z,100189.81
2023-01-27T16:59:54.084Z,100194.34
2023-01-27T17:05:57.920Z,100197.22
2023-01-27T17:12:00.055Z,100203.00
2023-01-27T17:18:08.354Z,100205.84
2023-01-27T17:24:37.766Z,100216.69
2023-01-27T17:30:42.216Z,100225.72
2023-01-27T17:37:16.822Z,100234.75
2023-01-27T17:43:45.138Z,100235.38
2023-01-27T17:49:50.103Z,100233.34
2023-01-27T17:55:53.642Z,100247.53
2023-01-27T18:01:59.665Z,100256.41
2023-01-27T18:08:03.771Z,100249.41
2023-01-27T18:14:17.974Z,100262.44
2023-01-27T18:20:33.297Z,100279.13
2023-01-27T18:26:38.107Z,100284.69
2023-01-27T18:32:46.063Z,100289.84
2023-01-27T18:38:49.929Z,100292.34
2023-01-27T18:44:53.431Z,100301.59
2023-01-27T18:50:55.327Z,100299.94
2023-01-27T18:56:57.219Z,100306.94
2023-01-27T19:03:00.960Z,100307.28
2023-01-27T19:09:04.880Z,100303.69
2023-01-27T19:15:08.081Z,100313.28
2023-01-27T19:21:15.905Z,100306.19
2023-01-27T19:27:19.141Z,100305.59
2023-01-27T19:33:24.764Z,100305.81
2023-01-27T19:39:27.770Z,100304.25
2023-01-27T19:45:29.971Z,100313.28
2023-01-27T19:51:33.115Z,100313.91
2023-01-27T19:57:35.693Z,100305.59
2023-01-27T20:03:37.595Z,100318.59
2023-01-27T20:09:39.525Z,100316.19
2023-01-27T20:15:42.099Z,100324.38
2023-01-27T20:21:45.850Z,100316.78
2023-01-27T20:27:51.162Z,100328.09
2023-01-27T20:33:53.160Z,100329.78
2023-01-27T20:39:55.139Z,100331.81
2023-01-27T20:46:02.095Z,100338.69
2023-01-27T20:52:04.013Z,100338.78
2023-01-27T20:58:06.289Z,100337.47
2023-01-27T21:04:08.174Z,100342.88
2023-01-27T21:10:11.512Z,100339.75
2023-01-27T21:16:14.330Z,100345.53
2023-01-27T21:22:16.341Z,100353.59
2023-01-27T21:28:18.504Z,100354.44
2023-01-27T21:34:20.503Z,100360.69
2023-01-27T21:40:23.523Z,100355.28
2023-01-27T21:46:25.476Z,100346.38
2023-01-27T21:52:33.582Z,100343.97
2023-01-27T21:58:36.219Z,100352.41
2023-01-27T22:05:06.124Z,100353.84
2023-01-27T22:11:12.498Z,100352.13
2023-01-27T22:17:14.587Z,100353.00
2023-01-27T22:23:18.971Z,100350.72
2023-01-27T22:29:20.911Z,100351.19
2023-01-27T22:35:22.834Z,100363.09
2023-01-27T22:41:24.754Z,100360.56
2023-01-27T22:47:26.689Z,100358.63
2023-01-27T22:53:28.571Z,100363.09
2023-01-27T22:59:30.472Z,100349.00
2023-01-27T23:05:32.564Z,100343.00
2023-01-27T23:11:34.478Z,100339.28
2023-01-27T23:17:36.479Z,100342.63
2023-01-27T23:23:38.395Z,100328.59
2023-01-27T23:29:40.303Z,100325.69
2023-01-27T23:35:42.537Z,100333.75
2023-01-27T23:41:44.461Z,100322.91
2023-01-27T23:47:46.348Z,100318.47
2023-01-27T23:53:49.237Z,100322.31
2023-01-27T23:59:51.103Z,100327.47
